Minneapolis, Minnesota
Traffic Map
Current Weather Conditions
Minneapolis, Minnesota
Overcast Light Rain
Overcast

Feels Like: -2°
Wind Chill: -2° Ceiling: 600
Heat Index: Visibility: 2mi
Dew Point: Wind: 9mph
Humidity: 93% Direction: 160° (SSE)
Pressure: 29.75in Gusts: 0mph
Raw Report DataKMSP 212153Z 16008KT 2SM -RA BR OVC006 02/01 A2975 RMK AO2 SLP081 P0003 T00220011 $
Traffic Incident Summary
Active as of:
Severity:
Category:
InformationThere was an issue retrieving the traffic information for this location. Please try a different location or try again shortly.
Advertisements
Track Severe Weather on mobile